createdAt,value
2019-06-01T05:12:01.954Z,16.50
2019-06-01T05:22:01.751Z,18.37
2019-06-01T05:32:03.963Z,19.50
2019-06-01T05:42:01.661Z,20.25
2019-06-01T05:52:01.443Z,20.75
2019-06-01T06:02:01.709Z,21.12
2019-06-01T06:12:01.722Z,21.75
2019-06-01T06:22:01.151Z,21.87
2019-06-01T06:32:01.830Z,22.37
2019-06-01T06:42:01.903Z,22.37
2019-06-01T06:52:01.789Z,24.50
2019-06-01T07:02:01.927Z,26.25
2019-06-01T07:12:02.218Z,27.25
2019-06-01T07:22:04.036Z,28.00
2019-06-01T07:32:01.751Z,28.75
2019-06-01T07:42:01.883Z,29.63
2019-06-01T07:52:11.997Z,30.62
2019-06-01T08:02:01.376Z,32.00
2019-06-01T08:12:03.993Z,31.62
2019-06-01T08:22:01.807Z,27.62
2019-06-01T08:32:01.882Z,32.50
2019-06-01T08:42:01.839Z,32.88
2019-06-01T08:52:02.019Z,32.00
2019-06-01T09:02:01.871Z,30.12
2019-06-01T09:12:01.859Z,30.88
2019-06-01T09:22:01.892Z,31.87
2019-06-01T09:32:01.390Z,31.37
2019-06-01T09:42:01.892Z,31.50
2019-06-01T09:52:02.473Z,32.00
2019-06-01T10:02:02.101Z,31.00
2019-06-01T10:12:01.859Z,30.88
2019-06-01T10:22:01.441Z,30.88
2019-06-01T10:32:02.099Z,31.62
2019-06-01T10:42:01.370Z,31.37
2019-06-01T10:52:01.140Z,31.12
2019-06-01T11:02:02.113Z,30.12
2019-06-01T11:12:00.974Z,31.25
2019-06-01T11:22:02.087Z,29.63
2019-06-01T11:32:01.034Z,29.75
2019-06-01T11:42:00.959Z,30.75
2019-06-01T11:52:01.770Z,30.37
2019-06-01T12:02:01.121Z,31.12
2019-06-01T12:12:01.098Z,31.25
2019-06-01T12:22:01.269Z,31.25
2019-06-01T12:32:01.236Z,30.75
2019-06-01T12:42:00.999Z,31.37
2019-06-01T12:52:01.696Z,32.00
2019-06-01T13:02:01.865Z,31.87
2019-06-01T13:12:00.962Z,32.50
2019-06-01T13:22:02.074Z,32.63
2019-06-01T13:32:01.447Z,32.63
2019-06-01T13:42:01.305Z,33.13
2019-06-01T13:52:01.282Z,33.63
2019-06-01T14:02:01.148Z,33.75
2019-06-01T14:12:01.568Z,33.50
2019-06-01T14:22:01.724Z,35.13
2019-06-01T14:32:01.385Z,34.75
2019-06-01T14:42:01.234Z,35.13
2019-06-01T14:52:01.496Z,35.88
2019-06-01T15:02:01.378Z,35.63
2019-06-01T15:12:01.589Z,35.00
2019-06-01T15:22:03.533Z,35.25
2019-06-01T15:32:02.409Z,35.13
2019-06-01T15:42:01.418Z,36.50
2019-06-01T15:52:02.777Z,34.50
2019-06-01T16:02:03.399Z,34.63
2019-06-01T16:12:01.758Z,35.25
2019-06-01T16:22:02.649Z,35.88
2019-06-01T16:32:02.957Z,35.63
2019-06-01T16:42:02.138Z,33.75
2019-06-01T16:52:03.253Z,32.88
2019-06-01T17:02:03.383Z,33.25
2019-06-01T17:12:03.051Z,34.00
2019-06-01T17:22:03.492Z,33.88
2019-06-01T17:32:16.747Z,31.37
2019-06-01T17:42:02.525Z,30.37
2019-06-01T17:52:01.908Z,29.63
2019-06-01T18:02:03.529Z,29.12
2019-06-01T18:12:02.161Z,28.87
2019-06-01T18:22:02.621Z,28.38
2019-06-01T18:32:03.003Z,27.75
2019-06-01T18:42:02.059Z,27.25
2019-06-01T18:52:02.150Z,26.87
2019-06-01T19:02:02.319Z,26.25
